Jhang Sadar, Pakistan
Current Conditions -  °F | °C
As of 8:25 PM on Friday 31 Oct 2014 (Local Time) from OPLA Reporting Station
Smoke Smoke  
Wind Chill: 73°   Ceiling: Unl
Heat Index: 73°   Visibility: 2.5mi
Dew Point: 54°   Wind: 3mph
Humidity: 50%   Direction: 280°W
Pressure: NA   Gusts: NA
Location:  31.27°N, 72.32°E
Report Text: OPLA 311525Z 28003KT 4000 FU NSC 23/12 Q1015/A29.98
Loading
Personal Weather Stations






























Interactive Weather Map
Tropical Storm Tracking
New forecast layout! Learn more

10-Day Weather Forecast

Advertisements
Track Severe Weather on mobile